Rockland, Maine
Current Conditions -  °F | °C
As of 1:35 AM on Thursday 27 Nov 2014 (Local Time) from KRKD Reporting Station
Overcast Overcast  
Wind Chill: 24°   Ceiling: 1600
Heat Index: 34°   Visibility: 1.7mi
Dew Point: 30°   Wind: 16mph
Humidity: 87%   Direction: 360°N
Pressure: 29.62"   Gusts: 29mph
Location:  44.1°N, 69.11°W
Report Text: KRKD 270635Z AUTO 36014G25KT 1 3/4SM BKN016 OVC023 01/M01 A2962 RMK AO1 P0002
Loading
Personal Weather Stations






























Interactive Weather Map New forecast layout! Learn more

10-Day Weather Forecast

Advertisements
Track Severe Weather on mobile